Terminal Aerodrome Forecast
Issued by NWS

Current Version | Previous Version | Text Only | Print | Product List | Glossary Off
Versions: 1 2 3 4 5 6 7 8 9 10 11 12 13 14 15 16 17 18 19 20 21 22 23 24 25 26 27 28 29

156
FTUS41 KPBZ 131930 AAB
TAFHLG
TAF AMD
KHLG 131930Z 1320/1418 22008KT 2SM -SN OVC022
      TEMPO 1319/1323 1SM -SN OVC008
     FM132300 19008KT 3SM -SN OVC025
     FM140600 23010KT 2SM -SHSN OVC020
     FM141200 31007KT P6SM BKN015=

USA.gov is the U.S. government's official web portal to all federal, state and local government web resources and services.